Terminal Aerodrome Forecast
Issued by NWS

Home | Current Version | Previous Version | Text Only | Print | Product List | Glossary On
Versions: 1 2 3 4 5 6 7 8 9 10 11 12 13 14 15
989
FTUS44 KSJT 010520
TAFSOA
TAF
KSOA 010520Z 0106/0206 VRB03KT P6SM VCSH BKN018
      TEMPO 0107/0109 -TSRA BKN015CB
     FM010900 16004KT P6SM VCSH BKN015
     FM011600 VRB04KT P6SM VCSH SCT030 BKN040=

USA.gov is the U.S. government's official web portal to all federal, state and local government web resources and services.